Time;durP1;ratioP1;P1;durP2;ratioP2;P2;SDS_P1;SDS_P2;PMS_P1;PMS_P2;Temp;Humidity;BMP_temperature;BMP_pressure;BME280_temperature;BME280_humidity;BME280_pressure;Samples;Min_cycle;Max_cycle;Signal;HPM_P1;HPM_P2
2021/11/09 00:01:55;;;;;;;25.90;19.20;;;;;;;;;;764508;180;923776;-62
2021/11/09 00:04:21;;;;;;;31.73;20.83;;;;;;;;;;777004;180;618431;-62
2021/11/09 00:06:49;;;;;;;32.23;19.40;;;;;;;;;;775091;179;627199;-61
2021/11/09 00:09:15;;;;;;;29.20;20.77;;;;;;;;;;770288;179;918237;-62
2021/11/09 00:11:36;;;;;;;32.70;21.40;;;;;;;;;;776097;180;625715;-61
2021/11/09 00:14:02;;;;;;;33.97;18.80;;;;;;;;;;770485;179;628493;-62
2021/11/09 00:16:28;;;;;;;32.33;19.80;;;;;;;;;;773650;179;918064;-62
2021/11/09 00:18:53;;;;;;;30.70;20.97;;;;;;;;;;764484;180;919010;-62
2021/11/09 00:21:19;;;;;;;36.77;20.13;;;;;;;;;;770197;180;918230;-62
2021/11/09 00:23:46;;;;;;;33.10;21.93;;;;;;;;;;775802;179;625607;-62
2021/11/09 00:26:11;;;;;;;33.33;20.33;;;;;;;;;;770555;180;920007;-62
2021/11/09 00:28:37;;;;;;;29.70;19.03;;;;;;;;;;770670;179;915397;-62
2021/11/09 00:31:03;;;;;;;37.13;22.23;;;;;;;;;;771487;179;713875;-63
2021/11/09 00:33:30;;;;;;;32.10;19.47;;;;;;;;;;763999;179;1029755;-62
2021/11/09 00:35:55;;;;;;;29.20;18.70;;;;;;;;;;771613;180;913838;-62
2021/11/09 00:38:21;;;;;;;34.67;21.13;;;;;;;;;;772491;179;915128;-62
2021/11/09 00:40:47;;;;;;;30.93;20.10;;;;;;;;;;776121;179;914315;-63
2021/11/09 00:43:12;;;;;;;28.38;18.87;;;;;;;;;;768713;179;919354;-62
2021/11/09 00:45:38;;;;;;;33.53;21.37;;;;;;;;;;773625;180;921590;-62
2021/11/09 00:48:04;;;;;;;31.27;19.20;;;;;;;;;;767605;180;2137833;-63
2021/11/09 00:50:30;;;;;;;31.63;19.00;;;;;;;;;;770862;180;628824;-63
2021/11/09 00:52:56;;;;;;;26.53;19.07;;;;;;;;;;773904;180;627750;-62
2021/11/09 00:55:22;;;;;;;29.77;19.17;;;;;;;;;;770971;180;920439;-62
2021/11/09 00:57:47;;;;;;;28.97;18.93;;;;;;;;;;773392;180;919284;-62
2021/11/09 01:00:14;;;;;;;29.10;18.20;;;;;;;;;;775138;180;917993;-62
2021/11/09 01:02:40;;;;;;;36.80;19.43;;;;;;;;;;767589;180;919361;-62
2021/11/09 01:05:05;;;;;;;30.70;19.30;;;;;;;;;;764742;180;919343;-62
2021/11/09 01:07:31;;;;;;;30.57;19.67;;;;;;;;;;763030;181;1022093;-61
2021/11/09 01:09:57;;;;;;;33.57;19.40;;;;;;;;;;772643;180;918926;-62
2021/11/09 01:12:23;;;;;;;31.07;18.53;;;;;;;;;;765400;180;917406;-62
2021/11/09 01:14:48;;;;;;;25.90;16.70;;;;;;;;;;777766;179;618935;-62
2021/11/09 01:17:14;;;;;;;28.23;18.47;;;;;;;;;;777612;179;869074;-63
2021/11/09 01:19:40;;;;;;;30.03;19.80;;;;;;;;;;770930;179;916489;-64
2021/11/09 01:22:06;;;;;;;25.93;17.30;;;;;;;;;;767066;180;913293;-62
2021/11/09 01:24:32;;;;;;;29.80;18.93;;;;;;;;;;770545;180;912611;-62
2021/11/09 01:26:58;;;;;;;33.60;19.00;;;;;;;;;;771776;180;911980;-63
2021/11/09 01:29:23;;;;;;;30.95;18.83;;;;;;;;;;761606;181;1120681;-62
2021/11/09 01:31:52;;;;;;;29.30;19.30;;;;;;;;;;762834;180;919684;-61
2021/11/09 01:34:15;;;;;;;23.27;16.43;;;;;;;;;;766598;183;633750;-62
2021/11/09 01:36:41;;;;;;;23.13;17.27;;;;;;;;;;766865;180;919333;-62
2021/11/09 01:39:07;;;;;;;29.97;18.47;;;;;;;;;;771780;180;918673;-62
2021/11/09 01:41:33;;;;;;;30.80;17.53;;;;;;;;;;776306;180;638577;-62
2021/11/09 01:43:59;;;;;;;21.60;15.83;;;;;;;;;;772106;181;919210;-61
2021/11/09 01:46:24;;;;;;;24.73;17.33;;;;;;;;;;778275;180;627399;-62
2021/11/09 01:48:50;;;;;;;25.65;19.73;;;;;;;;;;775774;179;917580;-62
2021/11/09 01:51:17;;;;;;;28.50;18.20;;;;;;;;;;770728;181;917112;-62
2021/11/09 01:53:42;;;;;;;27.73;17.27;;;;;;;;;;766395;180;1008402;-63
2021/11/09 01:56:09;;;;;;;24.27;17.40;;;;;;;;;;769521;180;919336;-61
2021/11/09 01:58:35;;;;;;;31.07;19.00;;;;;;;;;;763735;180;917759;-62
2021/11/09 02:01:01;;;;;;;24.20;17.03;;;;;;;;;;769347;180;923594;-62
2021/11/09 02:03:27;;;;;;;34.37;18.00;;;;;;;;;;776320;180;639721;-62
2021/11/09 02:05:53;;;;;;;33.33;17.60;;;;;;;;;;769420;181;919156;-65
2021/11/09 02:08:18;;;;;;;44.23;22.50;;;;;;;;;;766763;180;919845;-62
2021/11/09 02:10:44;;;;;;;34.07;18.30;;;;;;;;;;768057;180;918614;-62
2021/11/09 02:13:10;;;;;;;43.80;20.13;;;;;;;;;;770970;180;918488;-62
2021/11/09 02:15:36;;;;;;;26.97;18.00;;;;;;;;;;767654;180;1021759;-62
2021/11/09 02:18:02;;;;;;;32.27;18.77;;;;;;;;;;770673;180;928514;-61
2021/11/09 02:20:29;;;;;;;29.80;19.00;;;;;;;;;;774870;180;919278;-61
2021/11/09 02:22:54;;;;;;;26.63;18.13;;;;;;;;;;777316;180;918599;-62
2021/11/09 02:25:20;;;;;;;26.27;17.93;;;;;;;;;;767321;180;920227;-62
2021/11/09 02:27:46;;;;;;;26.00;18.13;;;;;;;;;;767636;179;919533;-61
2021/11/09 02:30:12;;;;;;;27.50;19.27;;;;;;;;;;773882;181;918942;-62
2021/11/09 02:32:38;;;;;;;27.20;19.20;;;;;;;;;;770235;180;917555;-62
2021/11/09 02:35:04;;;;;;;27.93;19.23;;;;;;;;;;765895;181;918553;-62
2021/11/09 02:37:30;;;;;;;28.93;18.63;;;;;;;;;;777607;179;919872;-62
2021/11/09 02:39:57;;;;;;;34.73;18.33;;;;;;;;;;772717;180;921315;-62
2021/11/09 02:42:22;;;;;;;26.47;19.00;;;;;;;;;;770940;180;919416;-63
2021/11/09 02:44:49;;;;;;;30.50;20.13;;;;;;;;;;771746;180;920237;-62
2021/11/09 02:47:16;;;;;;;29.90;21.40;;;;;;;;;;770469;181;919251;-62
2021/11/09 02:49:55;;;;;;;33.00;21.40;;;;;;;;;;766164;180;916379;-62
2021/11/09 02:52:11;;;;;;;31.50;19.37;;;;;;;;;;768156;181;916296;-62
2021/11/09 02:54:42;;;;;;;29.40;20.80;;;;;;;;;;772696;180;919296;-61
2021/11/09 02:57:06;;;;;;;36.23;19.60;;;;;;;;;;768103;180;940185;-62
2021/11/09 02:59:43;;;;;;;37.50;21.50;;;;;;;;;;770404;180;919371;-62
2021/11/09 03:02:02;;;;;;;36.75;19.65;;;;;;;;;;767731;181;918566;-62
2021/11/09 03:04:41;;;;;;;39.93;23.37;;;;;;;;;;774075;179;917978;-62
2021/11/09 03:07:25;;;;;;;35.57;22.10;;;;;;;;;;766695;179;918676;-62
2021/11/09 03:09:43;;;;;;;40.77;23.20;;;;;;;;;;764067;181;918853;-62
2021/11/09 03:12:05;;;;;;;30.90;19.90;;;;;;;;;;764315;181;1021052;-62
2021/11/09 03:14:30;;;;;;;33.50;20.50;;;;;;;;;;766290;181;919244;-62
2021/11/09 03:17:00;;;;;;;35.10;20.90;;;;;;;;;;762460;181;918757;-62
2021/11/09 03:19:37;;;;;;;31.90;18.83;;;;;;;;;;762885;180;917690;-62
2021/11/09 03:44:51;;;;;;;35.77;22.53;;;;;;;;;;771345;180;918891;-62
2021/11/09 03:47:11;;;;;;;35.77;20.90;;;;;;;;;;768123;180;919790;-62
2021/11/09 03:49:36;;;;;;;38.55;22.35;;;;;;;;;;775642;179;918597;-62
2021/11/09 03:52:02;;;;;;;27.20;19.80;;;;;;;;;;771134;179;917025;-63
2021/11/09 03:54:28;;;;;;;33.57;22.10;;;;;;;;;;768351;180;919912;-62
2021/11/09 03:57:03;;;;;;;35.53;23.10;;;;;;;;;;775417;180;921863;-63
2021/11/09 03:59:34;;;;;;;29.33;18.70;;;;;;;;;;771447;180;920844;-63
2021/11/09 04:02:13;;;;;;;27.50;21.00;;;;;;;;;;763408;180;919347;-62
2021/11/09 04:04:36;;;;;;;26.87;17.40;;;;;;;;;;765479;179;918925;-62
2021/11/09 04:07:16;;;;;;;28.23;17.23;;;;;;;;;;766115;180;918176;-61
2021/11/09 04:12:28;;;;;;;35.97;20.70;;;;;;;;;;772239;180;919085;-62
2021/11/09 04:14:49;;;;;;;36.17;19.57;;;;;;;;;;763196;181;1055144;-61
2021/11/09 04:17:15;;;;;;;29.13;19.67;;;;;;;;;;769342;180;928963;-63
2021/11/09 04:20:17;;;;;;;23.85;17.65;;;;;;;;;;769961;180;919286;-62
2021/11/09 04:25:09;;;;;;;26.75;16.40;;;;;;;;;;775290;180;919872;-62
2021/11/09 04:27:29;;;;;;;20.47;14.13;;;;;;;;;;761911;181;919570;-62
2021/11/09 04:32:33;;;;;;;23.07;15.20;;;;;;;;;;767470;180;918343;-64
2021/11/09 04:35:18;;;;;;;26.20;16.07;;;;;;;;;;764879;180;922447;-61
2021/11/09 04:48:14;;;;;;;21.77;14.47;;;;;;;;;;774078;180;913435;-63
2021/11/09 04:52:55;;;;;;;18.47;13.00;;;;;;;;;;777950;179;634628;-64
2021/11/09 05:02:47;;;;;;;25.57;15.53;;;;;;;;;;775559;180;920483;-64
2021/11/09 05:10:14;;;;;;;28.27;19.47;;;;;;;;;;770047;180;919495;-63
2021/11/09 05:12:38;;;;;;;30.27;18.27;;;;;;;;;;773908;180;918916;-64
2021/11/09 05:15:04;;;;;;;26.93;16.60;;;;;;;;;;773688;180;915594;-65
2021/11/09 05:17:31;;;;;;;22.47;15.37;;;;;;;;;;773518;180;919721;-64
2021/11/09 05:19:56;;;;;;;27.00;16.60;;;;;;;;;;772032;180;630821;-63
2021/11/09 05:22:22;;;;;;;24.37;15.60;;;;;;;;;;775463;180;626470;-65
2021/11/09 05:24:48;;;;;;;23.67;14.73;;;;;;;;;;771736;180;628076;-65
2021/11/09 05:27:16;;;;;;;23.67;14.13;;;;;;;;;;765595;180;1456003;-64
2021/11/09 05:29:41;;;;;;;24.73;14.90;;;;;;;;;;774694;179;621112;-64
2021/11/09 05:32:07;;;;;;;22.17;14.67;;;;;;;;;;770639;180;913262;-63
2021/11/09 05:34:33;;;;;;;26.60;15.83;;;;;;;;;;769401;180;921633;-61
2021/11/09 05:37:00;;;;;;;21.90;14.00;;;;;;;;;;771988;180;918524;-62
2021/11/09 05:39:33;;;;;;;32.17;15.33;;;;;;;;;;775424;180;916932;-63
2021/11/09 05:41:56;;;;;;;25.02;16.12;;;;;;;;;;766038;180;918025;-64
2021/11/09 05:44:22;;;;;;;27.63;15.50;;;;;;;;;;769100;180;919725;-63
2021/11/09 05:46:48;;;;;;;23.43;15.03;;;;;;;;;;773230;179;919476;-61
2021/11/09 05:49:14;;;;;;;27.73;15.27;;;;;;;;;;768696;181;919859;-67
2021/11/09 05:51:40;;;;;;;26.70;14.97;;;;;;;;;;771665;180;640091;-63
2021/11/09 05:54:06;;;;;;;28.13;16.17;;;;;;;;;;770383;180;919497;-63
2021/11/09 05:56:31;;;;;;;25.57;15.63;;;;;;;;;;769523;180;916009;-62
2021/11/09 05:58:57;;;;;;;21.90;14.70;;;;;;;;;;771271;180;916249;-63
2021/11/09 06:01:23;;;;;;;23.43;15.23;;;;;;;;;;770752;179;1010413;-63
2021/11/09 06:03:49;;;;;;;22.83;15.33;;;;;;;;;;774633;180;919768;-61
2021/11/09 06:06:15;;;;;;;25.47;15.00;;;;;;;;;;760667;180;1872203;-63
2021/11/09 06:08:42;;;;;;;29.67;16.13;;;;;;;;;;767210;180;978798;-62
2021/11/09 06:11:07;;;;;;;24.10;15.57;;;;;;;;;;774842;180;919168;-63
2021/11/09 06:13:32;;;;;;;31.47;16.90;;;;;;;;;;763811;181;998376;-67
2021/11/09 06:15:58;;;;;;;28.47;17.10;;;;;;;;;;771795;179;918756;-63
2021/11/09 06:18:24;;;;;;;30.40;18.30;;;;;;;;;;776818;180;918378;-64
2021/11/09 06:20:50;;;;;;;37.75;18.17;;;;;;;;;;772377;179;919238;-63
2021/11/09 06:23:16;;;;;;;33.13;18.60;;;;;;;;;;768203;181;918678;-65
2021/11/09 06:25:43;;;;;;;23.43;15.10;;;;;;;;;;768837;180;1022348;-64
2021/11/09 06:28:07;;;;;;;23.70;16.00;;;;;;;;;;773001;180;919329;-65
2021/11/09 06:30:33;;;;;;;29.03;18.87;;;;;;;;;;769662;180;919750;-64
2021/11/09 06:32:59;;;;;;;28.27;18.08;;;;;;;;;;762941;180;918088;-63
2021/11/09 06:35:25;;;;;;;37.87;20.83;;;;;;;;;;769165;180;943023;-64
2021/11/09 06:37:51;;;;;;;33.03;18.13;;;;;;;;;;769220;180;916697;-64
2021/11/09 06:40:17;;;;;;;35.00;18.50;;;;;;;;;;770247;180;916588;-64
2021/11/09 06:42:43;;;;;;;39.30;23.23;;;;;;;;;;774672;181;921780;-65
2021/11/09 06:45:08;;;;;;;42.23;21.80;;;;;;;;;;768697;180;915569;-64
2021/11/09 06:47:34;;;;;;;38.23;21.27;;;;;;;;;;768575;180;920211;-64
2021/11/09 06:50:00;;;;;;;38.83;22.00;;;;;;;;;;764457;181;919797;-62
2021/11/09 06:52:26;;;;;;;47.83;24.03;;;;;;;;;;768635;179;919825;-64
2021/11/09 06:54:52;;;;;;;57.83;28.77;;;;;;;;;;764613;179;926356;-62
2021/11/09 06:57:18;;;;;;;58.87;28.67;;;;;;;;;;768973;180;919248;-62
2021/11/09 06:59:47;;;;;;;64.97;26.83;;;;;;;;;;776604;180;918320;-63
2021/11/09 07:02:09;;;;;;;65.67;28.47;;;;;;;;;;774616;180;919445;-64
2021/11/09 07:04:35;;;;;;;67.60;29.40;;;;;;;;;;768488;179;919529;-64
2021/11/09 07:07:03;;;;;;;71.93;33.00;;;;;;;;;;771275;180;918953;-62
2021/11/09 07:09:27;;;;;;;67.60;31.27;;;;;;;;;;768296;179;918307;-63
2021/11/09 07:11:53;;;;;;;71.68;30.45;;;;;;;;;;770444;179;919440;-62
2021/11/09 07:14:19;;;;;;;84.90;34.93;;;;;;;;;;770463;179;918454;-64
2021/11/09 07:16:45;;;;;;;91.37;38.17;;;;;;;;;;765546;179;920037;-63
2021/11/09 07:19:11;;;;;;;102.70;39.27;;;;;;;;;;770159;177;1017082;-62
2021/11/09 07:21:37;;;;;;;94.70;37.50;;;;;;;;;;765940;180;919355;-63
2021/11/09 07:24:03;;;;;;;115.23;43.10;;;;;;;;;;776071;180;919356;-62
2021/11/09 07:26:29;;;;;;;108.83;43.63;;;;;;;;;;772490;180;919757;-63
2021/11/09 07:28:55;;;;;;;89.83;39.27;;;;;;;;;;767821;180;919335;-63
2021/11/09 07:31:21;;;;;;;117.13;43.63;;;;;;;;;;774935;180;918439;-63
2021/11/09 07:33:48;;;;;;;91.80;39.03;;;;;;;;;;771058;180;919550;-62
2021/11/09 07:36:13;;;;;;;98.07;39.30;;;;;;;;;;769624;180;919672;-62
2021/11/09 07:38:38;;;;;;;89.28;35.80;;;;;;;;;;771730;180;919529;-63
2021/11/09 07:41:04;;;;;;;110.03;39.67;;;;;;;;;;769858;180;918725;-62
2021/11/09 07:43:30;;;;;;;98.22;37.85;;;;;;;;;;775056;179;919577;-64
2021/11/09 07:45:56;;;;;;;85.40;36.70;;;;;;;;;;769647;179;920596;-63
2021/11/09 07:48:22;;;;;;;80.33;35.37;;;;;;;;;;770887;181;918591;-62
2021/11/09 07:50:48;;;;;;;71.82;30.85;;;;;;;;;;763794;181;924522;-62
2021/11/09 07:53:17;;;;;;;78.97;36.13;;;;;;;;;;766072;181;919657;-62
2021/11/09 07:55:48;;;;;;;75.27;32.00;;;;;;;;;;775530;180;918542;-62
2021/11/09 07:58:12;;;;;;;67.57;29.80;;;;;;;;;;766032;180;1020745;-63
2021/11/09 08:00:35;;;;;;;76.75;28.60;;;;;;;;;;762101;181;1025189;-62
2021/11/09 08:03:08;;;;;;;58.73;29.73;;;;;;;;;;773962;180;917769;-62
2021/11/09 08:05:35;;;;;;;54.37;27.27;;;;;;;;;;768149;180;1018757;-62
2021/11/09 08:08:05;;;;;;;53.83;24.17;;;;;;;;;;767312;180;920912;-62
2021/11/09 08:10:22;;;;;;;48.90;26.20;;;;;;;;;;766376;180;920277;-63
2021/11/09 08:12:48;;;;;;;52.87;26.10;;;;;;;;;;775474;179;919649;-63
2021/11/09 08:15:14;;;;;;;43.13;23.07;;;;;;;;;;769114;180;919681;-63
2021/11/09 08:17:39;;;;;;;44.63;23.57;;;;;;;;;;765005;180;920214;-63
2021/11/09 08:20:06;;;;;;;46.33;21.27;;;;;;;;;;771399;180;918211;-62
2021/11/09 08:22:31;;;;;;;40.83;19.70;;;;;;;;;;767324;180;918828;-62
2021/11/09 08:24:57;;;;;;;39.30;21.10;;;;;;;;;;767857;179;1481613;-63
2021/11/09 08:27:23;;;;;;;40.33;21.00;;;;;;;;;;770832;180;918380;-62
2021/11/09 08:29:50;;;;;;;35.90;19.80;;;;;;;;;;774069;179;1019530;-63
2021/11/09 08:32:15;;;;;;;32.37;19.80;;;;;;;;;;765528;180;921994;-63
2021/11/09 08:34:41;;;;;;;40.07;20.20;;;;;;;;;;768099;180;919508;-63
2021/11/09 08:37:06;;;;;;;36.93;20.43;;;;;;;;;;775085;180;922197;-63
2021/11/09 08:39:39;;;;;;;31.17;18.37;;;;;;;;;;768518;180;922555;-63
2021/11/09 08:44:49;;;;;;;43.60;24.90;;;;;;;;;;768177;180;915240;-63
2021/11/09 08:47:12;;;;;;;41.47;22.90;;;;;;;;;;772561;180;916413;-63
2021/11/09 08:49:37;;;;;;;37.80;20.70;;;;;;;;;;770110;180;919908;-63
2021/11/09 08:52:05;;;;;;;34.43;21.30;;;;;;;;;;769511;179;922522;-63
2021/11/09 08:54:32;;;;;;;33.72;20.35;;;;;;;;;;766562;180;993928;-63
2021/11/09 08:57:09;;;;;;;40.33;21.60;;;;;;;;;;773642;180;919264;-63
2021/11/09 09:04:28;;;;;;;34.00;21.52;;;;;;;;;;768036;180;918889;-63
2021/11/09 09:06:54;;;;;;;35.27;20.43;;;;;;;;;;774492;180;918835;-64
2021/11/09 09:09:20;;;;;;;35.00;22.40;;;;;;;;;;768411;177;918470;-63
2021/11/09 09:11:46;;;;;;;38.13;19.80;;;;;;;;;;770110;179;919947;-63
2021/11/09 09:14:12;;;;;;;36.40;22.30;;;;;;;;;;774017;181;921961;-64
2021/11/09 09:16:43;;;;;;;39.43;21.33;;;;;;;;;;770858;180;919720;-65
2021/11/09 09:19:05;;;;;;;29.17;17.43;;;;;;;;;;772201;180;920813;-64
2021/11/09 09:21:39;;;;;;;29.13;19.50;;;;;;;;;;770830;180;932159;-63
2021/11/09 09:24:08;;;;;;;29.30;18.00;;;;;;;;;;775198;180;916021;-63
2021/11/09 09:26:38;;;;;;;34.37;19.80;;;;;;;;;;769760;179;920373;-63
2021/11/09 09:57:07;;;;;;;12.00;7.20;;;;;;;;;;772350;179;919746;-66
2021/11/09 09:59:33;;;;;;;12.67;7.20;;;;;;;;;;767703;180;918953;-61
2021/11/09 10:02:02;;;;;;;9.50;5.90;;;;;;;;;;773688;180;919173;-62
2021/11/09 10:04:28;;;;;;;13.73;6.03;;;;;;;;;;760944;183;917724;-62
2021/11/09 10:06:54;;;;;;;9.07;5.80;;;;;;;;;;758987;182;918756;-62
2021/11/09 10:09:36;;;;;;;9.03;4.20;;;;;;;;;;751430;182;1740765;-62
2021/11/09 10:12:18;;;;;;;7.17;4.70;;;;;;;;;;755556;184;918186;-61
2021/11/09 10:14:44;;;;;;;15.73;5.70;;;;;;;;;;755139;183;919086;-63
2021/11/09 10:17:10;;;;;;;13.90;9.97;;;;;;;;;;774800;180;920350;-62
2021/11/09 10:19:36;;;;;;;18.40;12.83;;;;;;;;;;767186;181;921610;-63
2021/11/09 10:22:02;;;;;;;12.40;10.30;;;;;;;;;;771041;180;965981;-61
2021/11/09 10:24:27;;;;;;;13.77;7.03;;;;;;;;;;775265;180;917772;-61
2021/11/09 10:26:54;;;;;;;11.33;7.40;;;;;;;;;;765357;180;917869;-62
2021/11/09 10:29:19;;;;;;;36.67;19.83;;;;;;;;;;764841;180;919565;-63
2021/11/09 10:31:46;;;;;;;11.27;6.77;;;;;;;;;;766630;181;919556;-61
2021/11/09 10:34:17;;;;;;;25.47;14.03;;;;;;;;;;769645;181;916864;-64
2021/11/09 10:36:43;;;;;;;15.60;9.33;;;;;;;;;;760345;181;918522;-63
2021/11/09 10:39:12;;;;;;;23.80;14.87;;;;;;;;;;766439;181;918982;-63
2021/11/09 10:41:38;;;;;;;31.60;17.63;;;;;;;;;;770079;180;921496;-62
2021/11/09 10:44:06;;;;;;;27.87;17.93;;;;;;;;;;768301;180;912874;-63
2021/11/09 10:46:32;;;;;;;15.77;8.40;;;;;;;;;;757159;182;1939963;-63
2021/11/09 10:48:59;;;;;;;11.43;5.10;;;;;;;;;;757373;182;915551;-63
2021/11/09 10:51:24;;;;;;;42.47;18.67;;;;;;;;;;766832;183;918739;-62
2021/11/09 10:53:54;;;;;;;32.60;17.23;;;;;;;;;;755417;184;919459;-62
2021/11/09 10:56:32;;;;;;;22.70;13.90;;;;;;;;;;756669;182;919958;-62
2021/11/09 10:59:01;;;;;;;24.73;14.60;;;;;;;;;;762396;182;918214;-62
2021/11/09 11:04:02;;;;;;;15.30;11.43;;;;;;;;;;769902;179;955415;-62
2021/11/09 11:06:27;;;;;;;17.27;11.40;;;;;;;;;;763787;180;919606;-62
2021/11/09 11:08:54;;;;;;;16.80;12.37;;;;;;;;;;769029;180;1022447;-63
2021/11/09 11:11:22;;;;;;;16.60;11.43;;;;;;;;;;775197;180;918901;-62
2021/11/09 11:13:48;;;;;;;17.73;9.68;;;;;;;;;;760210;183;917404;-63
2021/11/09 11:16:14;;;;;;;14.80;8.77;;;;;;;;;;771982;180;919787;-62
2021/11/09 11:18:40;;;;;;;22.40;11.77;;;;;;;;;;771696;180;919714;-63
2021/11/09 11:21:06;;;;;;;14.27;10.52;;;;;;;;;;764291;182;919386;-63
2021/11/09 11:23:32;;;;;;;13.67;8.63;;;;;;;;;;757704;182;919397;-63
2021/11/09 11:25:57;;;;;;;13.95;8.55;;;;;;;;;;768688;181;919022;-63
2021/11/09 11:28:23;;;;;;;19.20;8.40;;;;;;;;;;777699;180;918608;-64
2021/11/09 11:30:49;;;;;;;10.60;7.33;;;;;;;;;;771809;179;918923;-63
2021/11/09 11:33:15;;;;;;;34.42;16.45;;;;;;;;;;767332;180;919272;-62
2021/11/09 11:35:41;;;;;;;16.27;10.57;;;;;;;;;;774559;180;920361;-63
2021/11/09 11:38:08;;;;;;;11.63;9.77;;;;;;;;;;767391;181;919813;-63
2021/11/09 11:40:34;;;;;;;11.50;8.30;;;;;;;;;;768010;180;918868;-63
2021/11/09 11:42:59;;;;;;;17.73;12.20;;;;;;;;;;766142;180;925566;-62
2021/11/09 11:45:25;;;;;;;20.90;13.90;;;;;;;;;;771310;179;917414;-62
2021/11/09 11:47:57;;;;;;;13.63;9.20;;;;;;;;;;762071;181;919766;-64
2021/11/09 11:50:23;;;;;;;12.77;8.60;;;;;;;;;;765593;181;919400;-62
2021/11/09 11:52:50;;;;;;;21.00;10.33;;;;;;;;;;773354;180;924563;-63
2021/11/09 11:55:29;;;;;;;11.70;7.67;;;;;;;;;;757494;183;920264;-63
2021/11/09 11:58:01;;;;;;;11.40;7.60;;;;;;;;;;758341;183;919353;-63
2021/11/09 12:00:28;;;;;;;10.50;8.67;;;;;;;;;;770706;179;985975;-64
2021/11/09 12:02:54;;;;;;;15.30;8.80;;;;;;;;;;772310;180;925460;-64
2021/11/09 12:05:35;;;;;;;10.67;8.80;;;;;;;;;;775261;180;919206;-63
2021/11/09 12:08:02;;;;;;;18.17;10.33;;;;;;;;;;772740;180;919502;-63
2021/11/09 12:10:33;;;;;;;23.30;12.57;;;;;;;;;;769596;180;918980;-63
2021/11/09 12:12:59;;;;;;;22.00;12.70;;;;;;;;;;764330;180;921407;-64
2021/11/09 12:15:25;;;;;;;17.60;11.27;;;;;;;;;;775340;180;919610;-63
2021/11/09 12:17:51;;;;;;;19.90;8.47;;;;;;;;;;771020;180;918598;-63
2021/11/09 12:20:17;;;;;;;10.97;8.03;;;;;;;;;;764688;180;918569;-64
2021/11/09 12:22:46;;;;;;;7.80;5.93;;;;;;;;;;767778;180;923192;-64
2021/11/09 12:25:12;;;;;;;10.70;6.80;;;;;;;;;;774441;180;921035;-63
2021/11/09 12:27:43;;;;;;;10.33;5.47;;;;;;;;;;767281;180;918497;-63
2021/11/09 12:30:09;;;;;;;7.47;4.80;;;;;;;;;;769611;180;919664;-64
2021/11/09 12:32:35;;;;;;;9.63;6.10;;;;;;;;;;769964;180;919642;-63
2021/11/09 12:35:19;;;;;;;7.57;6.00;;;;;;;;;;774928;180;919212;-64
2021/11/09 12:37:43;;;;;;;8.87;6.13;;;;;;;;;;775055;179;919249;-64
2021/11/09 12:40:24;;;;;;;13.80;9.90;;;;;;;;;;766456;180;923906;-64
2021/11/09 12:42:55;;;;;;;14.77;9.20;;;;;;;;;;764033;180;919286;-63
2021/11/09 12:45:21;;;;;;;13.45;8.45;;;;;;;;;;767208;180;983281;-64
2021/11/09 12:47:53;;;;;;;13.73;9.13;;;;;;;;;;770477;181;919561;-64
2021/11/09 12:50:19;;;;;;;14.90;9.87;;;;;;;;;;770092;180;920557;-64
2021/11/09 12:52:44;;;;;;;10.93;8.17;;;;;;;;;;770163;179;925334;-63
2021/11/09 12:55:10;;;;;;;9.70;6.93;;;;;;;;;;768647;180;948941;-63
2021/11/09 12:57:37;;;;;;;7.73;6.20;;;;;;;;;;775632;180;934096;-63
2021/11/09 13:00:08;;;;;;;8.00;6.50;;;;;;;;;;768016;180;919785;-64
2021/11/09 13:02:39;;;;;;;11.93;8.03;;;;;;;;;;771445;180;636969;-64
2021/11/09 13:05:04;;;;;;;12.93;8.47;;;;;;;;;;774374;180;918456;-63
2021/11/09 13:07:33;;;;;;;14.13;8.20;;;;;;;;;;770219;180;921642;-62
2021/11/09 13:09:56;;;;;;;11.80;8.43;;;;;;;;;;762123;180;935664;-63
2021/11/09 13:12:21;;;;;;;13.87;7.90;;;;;;;;;;764320;179;920121;-61
2021/11/09 13:14:49;;;;;;;11.37;8.30;;;;;;;;;;776694;180;921360;-63
2021/11/09 13:17:16;;;;;;;11.57;8.13;;;;;;;;;;773942;180;918466;-62
2021/11/09 13:19:43;;;;;;;11.43;8.18;;;;;;;;;;770053;180;919727;-63
2021/11/09 13:22:09;;;;;;;12.63;9.20;;;;;;;;;;769309;179;919684;-62
2021/11/09 13:24:37;;;;;;;10.77;7.43;;;;;;;;;;770336;180;919392;-62
2021/11/09 13:27:01;;;;;;;14.80;7.63;;;;;;;;;;763759;180;918787;-63
2021/11/09 13:29:28;;;;;;;11.68;6.85;;;;;;;;;;770123;180;918063;-62
2021/11/09 13:31:53;;;;;;;14.20;6.17;;;;;;;;;;773526;180;919744;-62
2021/11/09 13:34:20;;;;;;;14.53;6.80;;;;;;;;;;768242;180;917808;-63
2021/11/09 13:36:44;;;;;;;7.90;5.53;;;;;;;;;;771450;180;920524;-61
2021/11/09 13:39:10;;;;;;;7.03;4.35;;;;;;;;;;774265;179;918665;-62
2021/11/09 13:41:37;;;;;;;8.20;5.40;;;;;;;;;;768670;180;919303;-63
2021/11/09 13:44:05;;;;;;;8.73;6.30;;;;;;;;;;764579;179;2532253;-63
2021/11/09 13:46:31;;;;;;;11.60;6.73;;;;;;;;;;767207;180;919250;-62
2021/11/09 13:48:58;;;;;;;7.30;4.50;;;;;;;;;;775023;180;630480;-63
2021/11/09 13:51:25;;;;;;;11.70;5.13;;;;;;;;;;767090;179;918789;-62
2021/11/09 13:53:51;;;;;;;7.90;5.53;;;;;;;;;;769016;180;919170;-63
2021/11/09 13:56:17;;;;;;;12.93;6.90;;;;;;;;;;776054;180;919176;-63
2021/11/09 13:58:58;;;;;;;10.70;5.27;;;;;;;;;;769264;179;920804;-64
2021/11/09 14:01:30;;;;;;;6.30;4.60;;;;;;;;;;769578;180;920585;-64
2021/11/09 14:04:06;;;;;;;9.47;5.37;;;;;;;;;;768428;180;919512;-64
2021/11/09 14:06:42;;;;;;;10.27;6.37;;;;;;;;;;765468;180;919961;-63
2021/11/09 14:09:03;;;;;;;6.83;4.07;;;;;;;;;;776710;180;891514;-63
2021/11/09 14:12:10;;;;;;;9.50;5.63;;;;;;;;;;769637;180;944727;-64
2021/11/09 14:14:27;;;;;;;8.23;5.13;;;;;;;;;;765253;181;918010;-64
2021/11/09 14:16:48;;;;;;;11.60;3.90;;;;;;;;;;771515;180;919551;-64
2021/11/09 14:19:15;;;;;;;8.07;4.57;;;;;;;;;;769992;180;920117;-64
2021/11/09 14:21:42;;;;;;;9.13;5.67;;;;;;;;;;769192;179;915941;-62
2021/11/09 14:24:09;;;;;;;8.17;4.67;;;;;;;;;;780960;179;633689;-64
2021/11/09 14:26:34;;;;;;;13.53;6.30;;;;;;;;;;769599;179;915689;-64
2021/11/09 14:29:00;;;;;;;15.83;8.17;;;;;;;;;;768571;180;914357;-64
2021/11/09 14:31:27;;;;;;;13.00;9.63;;;;;;;;;;775793;180;918642;-63
2021/11/09 14:33:54;;;;;;;8.83;5.17;;;;;;;;;;777509;179;917928;-65
2021/11/09 14:36:19;;;;;;;11.83;6.10;;;;;;;;;;770146;180;919962;-63
2021/11/09 14:38:45;;;;;;;16.67;7.18;;;;;;;;;;773617;180;900380;-63
2021/11/09 14:41:22;;;;;;;17.10;8.90;;;;;;;;;;771716;180;892604;-64
2021/11/09 14:43:39;;;;;;;15.47;10.47;;;;;;;;;;767500;180;919303;-63
2021/11/09 14:46:07;;;;;;;26.00;12.00;;;;;;;;;;765047;180;919626;-63
2021/11/09 14:48:54;;;;;;;43.97;19.10;;;;;;;;;;777383;180;816728;-63
2021/11/09 14:51:21;;;;;;;23.23;12.43;;;;;;;;;;777005;179;919103;-64
2021/11/09 14:53:57;;;;;;;14.03;9.00;;;;;;;;;;773257;179;923725;-64
2021/11/09 14:56:12;;;;;;;11.80;8.73;;;;;;;;;;765536;180;918336;-64
2021/11/09 14:58:41;;;;;;;13.40;9.77;;;;;;;;;;765737;181;676845;-63
2021/11/09 15:01:12;;;;;;;13.47;9.43;;;;;;;;;;772511;182;618319;-64
2021/11/09 15:03:44;;;;;;;13.83;7.80;;;;;;;;;;771101;181;619008;-64
2021/11/09 15:06:19;;;;;;;14.47;10.90;;;;;;;;;;772174;180;632608;-65
2021/11/09 15:08:51;;;;;;;16.13;9.80;;;;;;;;;;774269;180;638157;-64
2021/11/09 15:11:25;;;;;;;21.23;13.05;;;;;;;;;;777636;180;626843;-63
2021/11/09 15:29:22;;;;;;;26.50;17.93;;;;;;;;;;773475;180;919444;-62
2021/11/09 15:31:52;;;;;;;24.60;16.07;;;;;;;;;;773437;180;622644;-66
2021/11/09 15:34:21;;;;;;;32.87;20.30;;;;;;;;;;775913;179;626096;-64
2021/11/09 15:36:46;;;;;;;32.90;17.77;;;;;;;;;;771829;179;628693;-63
2021/11/09 15:39:08;;;;;;;31.85;18.75;;;;;;;;;;773911;180;622714;-63
2021/11/09 15:41:34;;;;;;;36.60;20.67;;;;;;;;;;772624;180;644968;-63
2021/11/09 15:44:00;;;;;;;37.70;22.37;;;;;;;;;;771575;180;619237;-63
2021/11/09 15:46:26;;;;;;;48.57;28.37;;;;;;;;;;768741;180;634732;-63
2021/11/09 15:48:52;;;;;;;82.47;41.90;;;;;;;;;;778525;180;626284;-64
2021/11/09 15:51:20;;;;;;;115.10;55.93;;;;;;;;;;775333;180;628131;-67
2021/11/09 15:53:43;;;;;;;89.53;45.27;;;;;;;;;;767687;179;633073;-64
2021/11/09 15:56:09;;;;;;;66.50;34.97;;;;;;;;;;773605;180;627042;-63
2021/11/09 15:58:35;;;;;;;61.23;33.60;;;;;;;;;;774096;181;623381;-63